Time;durP1;ratioP1;P1;durP2;ratioP2;P2;SDS_P1;SDS_P2;PMS_P1;PMS_P2;Temp;Humidity;BMP_temperature;BMP_pressure;BME280_temperature;BME280_humidity;BME280_pressure;Samples;Min_cycle;Max_cycle;Signal;HPM_P1;HPM_P2
2022/05/21 00:01:26;;;;;;;4.78;3.92;;;;;;;;;;6155472;23;20005;-64
2022/05/21 00:03:53;;;;;;;6.63;4.05;;;;;;;;;;6155475;23;20377;-65
2022/05/21 00:06:19;;;;;;;6.65;3.80;;;;;;;;;;6155278;23;20088;-64
2022/05/21 00:08:45;;;;;;;4.82;4.13;;;;;;;;;;6155109;23;20013;-63
2022/05/21 00:11:11;;;;;;;8.00;4.63;;;;;;;;;;6155658;23;20017;-63
2022/05/21 00:13:37;;;;;;;6.97;4.20;;;;;;;;;;6156193;23;20001;-63
2022/05/21 00:16:05;;;;;;;6.38;4.70;;;;;;;;;;6157540;23;20093;-64
2022/05/21 00:18:32;;;;;;;6.18;3.85;;;;;;;;;;6157379;23;20105;-64
2022/05/21 00:20:58;;;;;;;5.43;3.97;;;;;;;;;;6157584;23;20081;-64
2022/05/21 00:23:29;;;;;;;8.98;4.35;;;;;;;;;;6156954;23;20037;-64
2022/05/21 00:26:08;;;;;;;7.95;3.97;;;;;;;;;;6157106;23;20314;-63
2022/05/21 00:28:35;;;;;;;6.45;4.55;;;;;;;;;;6157493;23;20002;-64
2022/05/21 00:31:01;;;;;;;5.60;3.50;;;;;;;;;;6156830;23;20014;-63
2022/05/21 00:33:28;;;;;;;4.03;3.53;;;;;;;;;;6157183;23;20032;-64
2022/05/21 00:35:54;;;;;;;5.38;3.65;;;;;;;;;;6155837;23;20056;-63
2022/05/21 00:38:21;;;;;;;8.50;4.15;;;;;;;;;;6157120;23;19998;-64
2022/05/21 00:40:47;;;;;;;4.18;3.55;;;;;;;;;;6157042;23;20333;-63
2022/05/21 00:43:34;;;;;;;10.15;4.15;;;;;;;;;;6157028;23;20005;-64
2022/05/21 00:46:00;;;;;;;6.07;4.07;;;;;;;;;;6157193;23;20040;-63
2022/05/21 00:48:26;;;;;;;4.30;3.45;;;;;;;;;;6156865;23;20432;-63
2022/05/21 00:50:52;;;;;;;9.00;4.50;;;;;;;;;;6157349;23;20423;-63
2022/05/21 00:53:19;;;;;;;6.03;3.78;;;;;;;;;;6156863;23;20006;-63
2022/05/21 00:55:46;;;;;;;7.40;4.18;;;;;;;;;;6157039;23;20001;-63
2022/05/21 01:00:57;;;;;;;4.45;3.60;;;;;;;;;;6157096;23;20032;-63
2022/05/21 01:03:25;;;;;;;6.82;3.97;;;;;;;;;;6157202;23;20366;-63
2022/05/21 01:05:51;;;;;;;7.57;4.25;;;;;;;;;;6156894;23;20014;-63
2022/05/21 01:08:17;;;;;;;5.50;3.53;;;;;;;;;;6156706;23;20020;-63
2022/05/21 01:10:47;;;;;;;5.55;3.65;;;;;;;;;;6156699;23;20005;-63
2022/05/21 01:13:14;;;;;;;7.95;4.10;;;;;;;;;;6156908;23;20010;-63
2022/05/21 01:15:43;;;;;;;8.65;4.18;;;;;;;;;;6157041;23;20005;-64
2022/05/21 01:18:09;;;;;;;6.28;3.85;;;;;;;;;;6156616;23;19998;-63
2022/05/21 01:20:37;;;;;;;7.72;3.92;;;;;;;;;;6156746;23;20029;-65
2022/05/21 01:23:03;;;;;;;8.48;3.85;;;;;;;;;;6156947;23;20005;-63
2022/05/21 01:25:31;;;;;;;6.25;4.00;;;;;;;;;;6156100;23;20009;-64
2022/05/21 01:27:58;;;;;;;5.18;3.70;;;;;;;;;;6156656;23;20044;-63
2022/05/21 01:30:28;;;;;;;6.68;4.10;;;;;;;;;;6130011;23;20442;-64
2022/05/21 01:32:54;;;;;;;7.57;3.90;;;;;;;;;;6156649;23;20064;-66
2022/05/21 01:35:20;;;;;;;7.75;4.20;;;;;;;;;;6156506;23;20037;-65
2022/05/21 01:37:47;;;;;;;6.95;3.88;;;;;;;;;;6156778;23;20302;-64
2022/05/21 01:40:13;;;;;;;6.30;3.90;;;;;;;;;;6156484;23;20467;-65
2022/05/21 01:42:39;;;;;;;5.18;3.67;;;;;;;;;;6157009;23;20002;-66
2022/05/21 01:45:06;;;;;;;5.90;4.10;;;;;;;;;;6156070;23;20016;-64
2022/05/21 01:47:32;;;;;;;5.70;3.97;;;;;;;;;;6156870;23;20013;-65
2022/05/21 01:49:58;;;;;;;7.00;4.18;;;;;;;;;;6156403;23;20005;-63
2022/05/21 01:52:25;;;;;;;9.30;3.80;;;;;;;;;;6156291;23;20012;-65
2022/05/21 01:54:51;;;;;;;7.90;4.57;;;;;;;;;;6156705;23;20005;-65
2022/05/21 01:57:18;;;;;;;5.85;3.95;;;;;;;;;;6156648;23;20008;-64
2022/05/21 01:59:44;;;;;;;4.07;3.45;;;;;;;;;;6156451;23;20006;-65
2022/05/21 02:02:10;;;;;;;5.18;4.20;;;;;;;;;;6156172;23;20002;-63
2022/05/21 02:04:36;;;;;;;5.60;4.20;;;;;;;;;;6156232;23;20540;-65
2022/05/21 02:07:02;;;;;;;6.88;4.18;;;;;;;;;;6130279;23;20002;-65
2022/05/21 02:09:28;;;;;;;10.05;4.45;;;;;;;;;;6156256;23;20005;-65
2022/05/21 02:11:55;;;;;;;4.55;3.85;;;;;;;;;;6156526;23;20013;-66
2022/05/21 02:14:21;;;;;;;5.97;3.78;;;;;;;;;;6156457;23;20310;-65
2022/05/21 02:16:47;;;;;;;6.55;4.25;;;;;;;;;;6155996;23;19997;-65
2022/05/21 02:19:13;;;;;;;6.18;3.70;;;;;;;;;;6129965;23;20005;-65
2022/05/21 02:21:40;;;;;;;4.70;3.70;;;;;;;;;;6156417;23;20072;-63
2022/05/21 02:24:08;;;;;;;7.30;4.10;;;;;;;;;;6156065;23;20012;-65
2022/05/21 02:26:38;;;;;;;6.93;3.80;;;;;;;;;;6156117;23;20017;-66
2022/05/21 02:29:04;;;;;;;4.97;3.85;;;;;;;;;;6156347;23;20002;-66
2022/05/21 02:31:30;;;;;;;4.60;3.63;;;;;;;;;;6155652;23;20017;-65
2022/05/21 02:33:56;;;;;;;5.57;3.90;;;;;;;;;;6156013;23;20021;-65
2022/05/21 02:39:25;;;;;;;4.63;3.78;;;;;;;;;;6156109;23;20078;-65
2022/05/21 02:39:28;;;;;;;5.63;3.88;;;;;;;;;;6155670;23;20088;-64
2022/05/21 02:41:55;;;;;;;6.10;3.80;;;;;;;;;;6156131;23;20025;-65
2022/05/21 02:44:21;;;;;;;5.55;3.83;;;;;;;;;;6155930;23;20037;-64
2022/05/21 02:46:47;;;;;;;5.05;3.83;;;;;;;;;;6155817;23;20010;-63
2022/05/21 02:49:13;;;;;;;4.20;3.20;;;;;;;;;;6155756;23;20429;-65
2022/05/21 02:51:39;;;;;;;52.53;8.07;;;;;;;;;;6156139;23;20005;-65
2022/05/21 02:54:06;;;;;;;9.35;4.20;;;;;;;;;;6155764;23;19997;-65
2022/05/21 02:56:33;;;;;;;6.43;4.20;;;;;;;;;;6155641;23;20005;-65
2022/05/21 02:58:59;;;;;;;5.70;3.83;;;;;;;;;;6155856;23;20484;-65
2022/05/21 03:01:25;;;;;;;4.28;3.53;;;;;;;;;;6155714;23;20005;-65
2022/05/21 03:03:51;;;;;;;4.78;3.92;;;;;;;;;;6155883;23;20005;-66
2022/05/21 03:06:17;;;;;;;5.05;4.00;;;;;;;;;;6155587;23;20016;-66
2022/05/21 03:11:28;;;;;;;7.45;3.97;;;;;;;;;;6155661;23;20024;-67
2022/05/21 03:13:54;;;;;;;7.50;3.72;;;;;;;;;;6155751;23;20013;-66
2022/05/21 03:16:20;;;;;;;5.10;4.00;;;;;;;;;;6155736;23;20072;-65
2022/05/21 03:18:46;;;;;;;4.88;3.70;;;;;;;;;;6155882;23;20052;-65
2022/05/21 03:21:13;;;;;;;5.97;3.65;;;;;;;;;;6156040;23;20073;-67
2022/05/21 03:23:39;;;;;;;4.35;3.30;;;;;;;;;;6155863;23;20005;-67
2022/05/21 03:26:06;;;;;;;12.10;4.30;;;;;;;;;;6155359;23;20132;-65
2022/05/21 03:28:32;;;;;;;6.82;4.10;;;;;;;;;;6155796;23;20013;-68
2022/05/21 03:30:58;;;;;;;6.22;4.50;;;;;;;;;;6155498;23;20014;-65
2022/05/21 03:33:24;;;;;;;6.40;4.00;;;;;;;;;;6129325;23;20457;-65
2022/05/21 03:35:50;;;;;;;5.93;4.13;;;;;;;;;;6155551;23;20421;-63
2022/05/21 03:38:19;;;;;;;6.10;4.20;;;;;;;;;;6155471;23;20365;-66
2022/05/21 03:40:45;;;;;;;7.50;4.18;;;;;;;;;;6155578;23;20032;-65
2022/05/21 03:43:11;;;;;;;7.82;4.28;;;;;;;;;;6155865;23;20012;-66
2022/05/21 03:45:38;;;;;;;9.60;4.78;;;;;;;;;;6155445;23;20096;-65
2022/05/21 03:48:05;;;;;;;7.65;4.00;;;;;;;;;;6156369;23;20048;-65
2022/05/21 03:50:32;;;;;;;7.55;4.05;;;;;;;;;;6157577;23;20433;-65
2022/05/21 03:52:58;;;;;;;6.25;3.90;;;;;;;;;;6157505;23;19997;-65
2022/05/21 03:55:25;;;;;;;7.82;4.03;;;;;;;;;;6157574;23;20005;-64
2022/05/21 03:57:51;;;;;;;9.30;4.30;;;;;;;;;;6157561;23;20063;-66
2022/05/21 04:00:18;;;;;;;6.18;4.13;;;;;;;;;;6157419;23;19997;-65
2022/05/21 04:02:44;;;;;;;11.73;4.43;;;;;;;;;;6157742;23;20425;-65
2022/05/21 04:05:11;;;;;;;6.78;4.30;;;;;;;;;;6157375;23;20019;-65
2022/05/21 04:07:39;;;;;;;7.68;4.80;;;;;;;;;;6157388;23;20002;-65
2022/05/21 04:10:05;;;;;;;6.47;4.40;;;;;;;;;;6157212;23;20068;-66
2022/05/21 04:12:32;;;;;;;7.57;4.20;;;;;;;;;;6157761;23;20012;-66
2022/05/21 04:14:58;;;;;;;7.63;4.25;;;;;;;;;;6157382;23;20417;-65
2022/05/21 04:17:24;;;;;;;5.22;4.18;;;;;;;;;;6157542;23;19999;-64
2022/05/21 04:19:50;;;;;;;5.63;4.43;;;;;;;;;;6157328;23;20002;-65
2022/05/21 04:22:15;;;;;;;7.28;5.18;;;461.10;2252.80;;;;;;6131096;23;20089;-65
2022/05/21 04:24:41;;;;;;;9.70;5.00;;;461.10;2252.80;;;;;;6157149;23;20033;-65
2022/05/21 04:27:07;;;;;;;10.20;6.82;;;461.10;2252.80;;;;;;6157126;23;20069;-65
2022/05/21 04:29:34;;;;;;;7.53;4.60;;;461.20;2380.80;;;;;;6157560;23;20002;-66
2022/05/21 04:32:00;;;;;;;7.20;4.28;;;;;;;;;;6156808;23;20025;-65
2022/05/21 04:34:26;;;;;;;21.55;5.60;;;;;;;;;;6157066;23;20495;-65
2022/05/21 04:36:52;;;;;;;9.57;4.63;;;;;;;;;;6157142;23;20002;-66
2022/05/21 04:39:19;;;;;;;23.40;6.25;;;;;;;;;;6157085;23;20005;-64
2022/05/21 04:41:45;;;;;;;9.73;4.20;;;;;;;;;;6157238;23;20096;-64
2022/05/21 04:44:11;;;;;;;7.55;4.22;;;461.50;2252.80;;;;;;6156999;23;20002;-65
2022/05/21 04:46:37;;;;;;;5.60;4.40;;;461.50;2252.80;;;;;;6157020;23;20095;-64
2022/05/21 04:49:03;;;;;;;7.22;4.70;;;461.50;2252.80;;;;;;6156975;23;20072;-64
2022/05/21 04:51:29;;;;;;;8.38;4.78;;;;;;;;;;6156985;23;20469;-65
2022/05/21 04:53:55;;;;;;;22.23;6.85;;;461.70;2252.80;;;;;;6156907;23;20029;-65
2022/05/21 04:56:21;;;;;;;7.50;4.82;;;486.40;2252.80;;;;;;6130554;23;20012;-65
2022/05/21 04:58:46;;;;;;;12.88;6.70;;;486.40;2252.80;;;;;;6157111;23;20001;-65
2022/05/21 05:01:12;;;;;;;10.70;6.65;;;;;;;;;;6156871;23;20076;-65
2022/05/21 05:03:39;;;;;;;8.00;5.80;;;;;;;;;;6156930;23;20001;-65
2022/05/21 05:06:06;;;;;;;11.77;6.13;;;;;;;;;;6157063;23;20013;-63
2022/05/21 05:08:32;;;;;;;9.18;6.63;;;;;;;;;;6156615;23;20023;-66
2022/05/21 05:10:58;;;;;;;10.90;6.35;;;;;;;;;;6156625;23;20447;-65
2022/05/21 05:13:24;;;;;;;5.50;4.82;;;;;;;;;;6156842;23;20029;-65
2022/05/21 05:15:50;;;;;;;7.00;4.28;;;;;;;;;;6156749;23;20455;-65
2022/05/21 05:18:21;;;;;;;7.50;5.53;;;487.10;2252.80;;;;;;6156961;23;20317;-65
2022/05/21 05:20:48;;;;;;;6.50;4.47;;;;;;;;;;6156754;23;20025;-63
2022/05/21 05:23:14;;;;;;;6.15;3.97;;;;;;;;;;6156742;23;20009;-65
2022/05/21 05:25:40;;;;;;;8.30;5.32;;;487.30;2227.20;;;;;;6156379;23;20452;-65
2022/05/21 05:28:14;;;;;;;8.15;5.28;;;;;;;;;;6156754;23;20001;-65
2022/05/21 05:30:40;;;;;;;11.65;5.18;;;512.20;2252.80;;;;;;6130609;23;20441;-65
2022/05/21 05:33:06;;;;;;;21.65;6.47;;;512.10;2278.40;;;;;;6156876;23;20005;-65
2022/05/21 05:35:32;;;;;;;10.63;7.78;;;;;;;;;;6156958;23;20006;-66
2022/05/21 05:37:58;;;;;;;13.18;5.88;;;;;;;;;;6156739;23;20002;-65
2022/05/21 05:40:24;;;;;;;9.75;5.65;;;;;;;;;;6156458;23;20066;-65
2022/05/21 05:42:50;;;;;;;5.70;4.88;;;512.80;2227.20;;;;;;6157089;23;20002;-65
2022/05/21 05:45:16;;;;;;;6.38;4.60;;;;;;;;;;6156629;23;20021;-65
2022/05/21 05:47:43;;;;;;;8.45;5.80;;;;;;;;;;6156352;23;20016;-65
2022/05/21 05:50:09;;;;;;;8.40;4.95;;;;;;;;;;6156417;23;20001;-65
2022/05/21 05:52:35;;;;;;;10.70;5.90;;;;;;;;;;6156311;23;20056;-65
2022/05/21 05:55:01;;;;;;;10.52;6.35;;;;;;;;;;6156171;23;20001;-65
2022/05/21 05:57:27;;;;;;;11.90;6.40;;;;;;;;;;6156335;23;20084;-66
2022/05/21 05:59:55;;;;;;;11.10;5.97;;;537.90;2201.60;;;;;;6156428;23;20002;-65
2022/05/21 06:05:12;;;;;;;7.53;5.60;;;;;;;;;;6156198;23;20091;-65
2022/05/21 06:07:42;;;;;;;7.95;5.43;;;;;;;;;;6156332;23;20381;-65
2022/05/21 06:10:08;;;;;;;9.40;4.80;;;538.30;2048.00;;;;;;6129921;23;20002;-65
2022/05/21 06:12:34;;;;;;;7.95;5.68;;;;;;;;;;6156324;23;20378;-65
2022/05/21 06:15:00;;;;;;;7.03;4.70;;;;;;;;;;6156488;23;19997;-66
2022/05/21 06:17:27;;;;;;;7.97;6.00;;;;;;;;;;6156424;23;20021;-66
2022/05/21 06:19:53;;;;;;;12.13;7.95;;;;;;;;;;6156064;23;20433;-65
2022/05/21 06:22:19;;;;;;;13.75;8.18;;;563.40;2048.00;;;;;;6156278;23;20025;-65
2022/05/21 06:24:44;;;;;;;11.70;8.85;;;563.40;2329.60;;;;;;6155815;23;20337;-65
2022/05/21 06:27:11;;;;;;;10.57;6.68;;;;;;;;;;6156128;23;20025;-65
2022/05/21 06:29:37;;;;;;;9.70;5.00;;;563.60;2176.00;;;;;;6156356;23;20368;-67
2022/05/21 06:32:07;;;;;;;6.38;4.65;;;563.70;2201.60;;;;;;6155686;23;20097;-66
2022/05/21 06:34:35;;;;;;;9.55;4.80;;;;;;;;;;6155892;23;20001;-66
2022/05/21 06:37:05;;;;;;;8.45;5.40;;;563.90;2099.20;;;;;;6155936;23;20088;-66
2022/05/21 06:39:33;;;;;;;7.47;5.60;;;564.00;2048.00;;;;;;6156067;23;20002;-66
2022/05/21 06:41:59;;;;;;;8.35;6.65;;;;;;;;;;6156240;23;20439;-65
2022/05/21 06:44:26;;;;;;;13.05;10.73;;;;;;;;;;6156054;23;20321;-66
2022/05/21 06:46:52;;;;;;;7.38;5.07;;;;;;;;;;6156259;23;20013;-65
2022/05/21 06:49:19;;;;;;;7.82;6.43;;;;;;;;;;6155715;23;20069;-66
2022/05/21 06:51:45;;;;;;;7.35;5.32;;;;;;;;;;6155752;23;20009;-66
2022/05/21 06:54:11;;;;;;;8.27;6.78;;;;;;;;;;6156021;23;20056;-65
2022/05/21 06:56:39;;;;;;;6.32;4.97;;;;;;;;;;6155673;23;20008;-65
2022/05/21 06:59:05;;;;;;;7.32;5.32;;;589.40;1894.40;;;;;;6155724;23;20028;-66
2022/05/21 07:01:31;;;;;;;6.03;4.18;;;589.50;1894.40;;;;;;6155716;23;20330;-66
2022/05/21 07:03:57;;;;;;;10.98;7.63;;;;;;;;;;6155803;23;20001;-66
2022/05/21 07:09:08;;;;;;;8.32;5.63;;;;;;;;;;6155684;23;20083;-66
2022/05/21 07:11:34;;;;;;;8.38;5.97;;;;;;;;;;6129312;23;20018;-66
2022/05/21 07:14:00;;;;;;;8.40;6.22;;;614.60;1792.00;;;;;;6155708;23;20011;-66
2022/05/21 07:16:26;;;;;;;14.32;5.57;;;614.60;1817.60;;;;;;6155872;23;20001;-66
2022/05/21 07:18:52;;;;;;;10.57;6.45;;;;;;;;;;6155850;23;20368;-66
2022/05/21 07:21:19;;;;;;;6.97;4.97;;;;;;;;;;6155540;23;20001;-66
2022/05/21 07:23:45;;;;;;;9.40;5.00;;;;;;;;;;6155367;23;20006;-66
2022/05/21 07:26:12;;;;;;;19.23;7.70;;;;;;;;;;6155503;23;20009;-66
2022/05/21 07:28:38;;;;;;;12.02;5.05;;;615.10;1766.40;;;;;;6155468;23;19997;-66
2022/05/21 07:31:04;;;;;;;16.10;6.20;;;615.10;1817.60;;;;;;6155255;23;20092;-66
2022/05/21 07:33:30;;;;;;;21.08;5.80;;;615.20;1766.40;;;;;;6155472;23;20052;-66
2022/05/21 07:35:57;;;;;;;15.00;5.93;;;;;;;;;;6155374;23;20005;-66
2022/05/21 07:38:24;;;;;;;7.97;5.78;;;;;;;;;;6155308;23;20001;-66
2022/05/21 07:40:52;;;;;;;13.45;5.55;;;;;;;;;;6155279;23;20052;-66
2022/05/21 07:43:18;;;;;;;7.60;5.25;;;;;;;;;;6155399;23;20059;-66
2022/05/21 07:45:45;;;;;;;12.80;6.68;;;;;;;;;;6129179;23;20018;-66
2022/05/21 07:48:12;;;;;;;8.60;5.93;;;;;;;;;;6155351;23;20024;-66
2022/05/21 07:50:40;;;;;;;10.68;6.45;;;;;;;;;;6155253;23;20005;-64
2022/05/21 07:53:10;;;;;;;9.77;5.53;;;;;;;;;;6155135;23;20433;-65
2022/05/21 07:55:36;;;;;;;10.90;6.22;;;;;;;;;;6155362;23;20013;-66
2022/05/21 07:58:02;;;;;;;7.88;5.45;;;;;;;;;;6155399;23;20002;-65
2022/05/21 08:00:28;;;;;;;11.18;5.47;;;;;;;;;;6155461;23;20032;-66
2022/05/21 08:02:54;;;;;;;12.95;5.95;;;;;;;;;;6155320;23;20455;-65
2022/05/21 08:05:20;;;;;;;12.30;6.15;;;;;;;;;;6155118;23;20062;-66
2022/05/21 08:07:50;;;;;;;8.18;5.20;;;;;;;;;;6155522;23;20005;-66
2022/05/21 08:10:16;;;;;;;9.48;5.82;;;;;;;;;;6155478;23;20082;-66
2022/05/21 08:12:42;;;;;;;9.88;7.10;;;;;;;;;;6155778;23;20005;-66
2022/05/21 08:15:09;;;;;;;8.45;6.22;;;;;;;;;;6155602;23;20006;-66
2022/05/21 08:17:34;;;;;;;19.08;6.68;;;665.60;1664.00;;;;;;6155246;23;20002;-66
2022/05/21 08:20:01;;;;;;;9.52;4.97;;;;;;;;;;6155181;23;20016;-66
2022/05/21 08:27:56;;;;;;;7.18;5.07;;;;;;;;;;6155206;23;20352;-66
2022/05/21 08:30:22;;;;;;;13.50;6.05;;;;;;;;;;6154846;23;20080;-66
2022/05/21 08:32:48;;;;;;;16.27;6.30;;;;;;;;;;6155027;23;20072;-66
2022/05/21 08:35:15;;;;;;;14.07;7.03;;;;;;;;;;6156568;23;20005;-66
2022/05/21 08:37:41;;;;;;;14.48;7.03;;;;;;;;;;6157019;23;20001;-66
2022/05/21 08:40:07;;;;;;;13.88;5.85;;;;;;;;;;6156918;23;20002;-66
2022/05/21 08:42:36;;;;;;;12.30;5.57;;;;;;;;;;6157462;23;20006;-66
2022/05/21 08:45:09;;;;;;;14.70;5.78;;;;;;;;;;6156866;23;20015;-66
2022/05/21 08:47:37;;;;;;;13.50;6.03;;;;;;;;;;6156863;23;20019;-66
2022/05/21 08:50:03;;;;;;;18.60;6.28;;;;;;;;;;6157033;23;20076;-66
2022/05/21 08:52:37;;;;;;;12.07;6.78;;;;;;;;;;6156876;23;20441;-66
2022/05/21 08:55:05;;;;;;;10.02;5.25;;;;;;;;;;6156734;23;20010;-66
2022/05/21 08:57:41;;;;;;;10.88;6.03;;;;;;;;;;6156829;23;20002;-66
2022/05/21 09:00:07;;;;;;;16.08;7.32;;;;;;;;;;6156464;23;20084;-66
2022/05/21 09:02:34;;;;;;;13.95;6.47;;;;;;;;;;6156786;23;20033;-66
2022/05/21 09:05:01;;;;;;;15.95;6.00;;;;;;;;;;6156809;23;20009;-66
2022/05/21 09:07:32;;;;;;;13.20;5.43;;;;;;;;;;6156638;23;20006;-66
2022/05/21 09:09:58;;;;;;;22.25;6.22;;;;;;;;;;6130499;23;20363;-66
2022/05/21 09:12:28;;;;;;;38.53;9.20;;;;;;;;;;6156992;23;20010;-66
2022/05/21 09:14:57;;;;;;;21.75;7.13;;;;;;;;;;6157080;23;20009;-66
2022/05/21 09:17:25;;;;;;;15.68;6.65;;;;;;;;;;6156583;23;20001;-66
2022/05/21 09:19:51;;;;;;;10.02;5.88;;;;;;;;;;6156664;23;20009;-66
2022/05/21 09:22:18;;;;;;;10.70;5.75;;;;;;;;;;6156684;23;20455;-66
2022/05/21 09:24:52;;;;;;;13.27;7.00;;;;;;;;;;6156350;23;20064;-66
2022/05/21 09:27:24;;;;;;;11.15;6.18;;;;;;;;;;6156398;23;20336;-66
2022/05/21 09:29:51;;;;;;;17.00;6.68;;;;;;;;;;6156405;23;20069;-66
2022/05/21 09:32:19;;;;;;;14.43;7.60;;;;;;;;;;6156442;23;20018;-66
2022/05/21 09:34:46;;;;;;;15.85;7.03;;;;;;;;;;6130243;23;20097;-66
2022/05/21 09:37:16;;;;;;;16.30;7.85;;;;;;;;;;6156413;23;20001;-66
2022/05/21 09:39:43;;;;;;;27.13;8.82;;;;;;;;;;6156559;23;20001;-66
2022/05/21 09:42:09;;;;;;;15.88;7.15;;;;;;;;;;6156599;23;20024;-66
2022/05/21 09:47:31;;;;;;;12.30;8.18;;;;;;;;;;6039370;23;20155;-66
2022/05/21 09:50:05;;;;;;;17.60;6.50;;;;;;;;;;6037665;23;20071;-66
2022/05/21 09:52:32;;;;;;;18.45;7.47;;;;;;;;;;6037199;23;20499;-66
2022/05/21 09:54:59;;;;;;;14.95;7.10;;;;;;;;;;6037474;23;20011;-66
2022/05/21 09:57:32;;;;;;;11.70;7.00;;;;;;;;;;6037472;23;20007;-66
2022/05/21 10:00:04;;;;;;;18.38;8.98;;;;;;;;;;6037573;23;20007;-66
2022/05/21 10:02:41;;;;;;;8.70;6.07;;;;;;;;;;6037481;23;20419;-66
2022/05/21 10:05:08;;;;;;;33.95;8.20;;;;;;;;;;6037145;23;20090;-66
2022/05/21 10:13:12;;;;;;;17.70;7.05;;;;;;;;;;6037597;23;20057;-67
2022/05/21 10:15:42;;;;;;;19.48;6.55;;;;;;;;;;6037054;23;20082;-66
2022/05/21 10:18:18;;;;;;;16.42;6.30;;;;;;;;;;6037339;23;20009;-66
2022/05/21 10:20:47;;;;;;;26.35;7.45;;;;;;;;;;6037060;23;20086;-66
2022/05/21 10:23:32;;;;;;;13.55;5.65;;;;;;;;;;6063649;23;20006;-66
2022/05/21 10:26:16;;;;;;;26.80;7.15;;;;;;;;;;6155482;23;20009;-67
2022/05/21 10:28:54;;;;;;;46.47;10.18;;;;;;;;;;6155834;23;20001;-66
2022/05/21 10:31:36;;;;;;;9.23;6.20;;;;;;;;;;6155530;23;20024;-66
2022/05/21 10:34:13;;;;;;;17.30;6.28;;;;;;;;;;6155799;23;19993;-66
2022/05/21 10:36:39;;;;;;;35.78;7.72;;;;;;;;;;6155840;23;20001;-66
2022/05/21 10:39:12;;;;;;;15.10;6.90;;;;;;;;;;6155963;23;20032;-66
2022/05/21 10:41:44;;;;;;;13.15;6.65;;;;;;;;;;6155779;23;20493;-66
2022/05/21 10:44:10;;;;;;;19.00;7.32;;;;;;;;;;6155745;23;20401;-66
2022/05/21 10:46:56;;;;;;;14.77;6.18;;;;;;;;;;6155937;23;20021;-67
2022/05/21 10:49:34;;;;;;;30.58;6.65;;;;;;;;;;6155483;23;20013;-66
2022/05/21 10:52:09;;;;;;;16.60;6.13;;;;;;;;;;6155821;23;19998;-66
2022/05/21 10:54:39;;;;;;;10.23;5.90;;;;;;;;;;6155473;23;20005;-66
2022/05/21 10:57:05;;;;;;;17.43;6.17;;;;;;;;;;6155405;23;20010;-66
2022/05/21 10:59:31;;;;;;;13.38;6.50;;;;;;;;;;6155588;23;20009;-66
2022/05/21 11:02:15;;;;;;;20.40;7.63;;;;;;;;;;6155724;23;20068;-66
2022/05/21 11:04:44;;;;;;;8.80;5.28;;;;;;;;;;6155421;23;20011;-66
2022/05/21 11:07:23;;;;;;;11.18;6.55;;;;;;;;;;6155666;23;20029;-66
2022/05/21 11:10:01;;;;;;;10.98;6.78;;;;;;;;;;6155500;23;20011;-66
2022/05/21 11:12:31;;;;;;;12.32;5.97;;;;;;;;;;6155747;23;20021;-66
2022/05/21 11:15:01;;;;;;;30.55;7.70;;;;;;;;;;6155601;23;20456;-66
2022/05/21 11:17:27;;;;;;;11.98;5.55;;;;;;;;;;6155450;23;19998;-67
2022/05/21 11:19:59;;;;;;;13.30;5.38;;;;;;;;;;6155656;23;20001;-67
2022/05/21 11:22:29;;;;;;;13.43;5.78;;;;;;;;;;6129364;23;20029;-67
2022/05/21 11:25:04;;;;;;;11.15;5.43;;;;;;;;;;6155062;23;20055;-66
2022/05/21 11:27:36;;;;;;;8.38;4.70;;;;;;;;;;6155322;23;20002;-67
2022/05/21 11:30:04;;;;;;;27.00;6.47;;;;;;;;;;6155579;23;20002;-66
2022/05/21 11:38:30;;;;;;;17.95;5.60;;;;;;;;;;6155507;23;20016;-66
2022/05/21 11:41:25;;;;;;;9.38;6.28;;;;;;;;;;6135328;23;20013;-67
2022/05/21 11:46:52;;;;;;;12.65;5.88;;;;;;;;;;6155491;23;20027;-66
2022/05/21 11:49:27;;;;;;;13.07;5.85;;;;;;;;;;6155293;23;20002;-66
2022/05/21 11:51:58;;;;;;;10.77;7.30;;;;;;;;;;6155810;23;20010;-66
2022/05/21 11:54:24;;;;;;;;;;;;;;;;;;6155983;23;20006;-66
2022/05/21 11:57:03;;;;;;;7.70;5.43;;;;;;;;;;6155350;23;19922;-66
2022/05/21 11:59:49;;;;;;;11.77;6.10;;;;;;;;;;6155296;23;20448;-66
2022/05/21 12:02:21;;;;;;;15.25;6.07;;;;;;;;;;6155296;23;20009;-67
2022/05/21 12:04:49;;;;;;;11.88;5.88;;;;;;;;;;6155102;23;20029;-66
2022/05/21 12:07:17;;;;;;;10.60;6.35;;;;;;;;;;6155634;23;20009;-66
2022/05/21 12:10:04;;;;;;;15.82;6.30;;;;;;;;;;6156198;23;19994;-66
2022/05/21 12:12:31;;;;;;;9.50;5.15;;;;;;;;;;6157511;23;20020;-66
2022/05/21 12:15:12;;;;;;;18.42;6.50;;;;;;;;;;6157342;23;20084;-66
2022/05/21 12:17:44;;;;;;;28.90;7.25;;;;;;;;;;6157509;23;20001;-66
2022/05/21 12:20:12;;;;;;;11.30;6.22;;;;;;;;;;6157209;23;20006;-66
2022/05/21 12:22:40;;;;;;;7.07;6.15;;;;;;;;;;6157407;23;20306;-66
2022/05/21 12:25:08;;;;;;;25.15;6.60;;;;;;;;;;6157472;23;20040;-66
2022/05/21 12:27:47;;;;;;;22.80;9.68;;;;;;;;;;6157325;23;20377;-66
2022/05/21 12:30:20;;;;;;;11.35;7.43;;;;;;;;;;6156857;23;20017;-67
2022/05/21 12:32:49;;;;;;;10.45;5.90;;;;;;;;;;6156868;23;20132;-66
2022/05/21 12:35:25;;;;;;;8.25;4.72;;;;;;;;;;6156860;23;20401;-66
2022/05/21 12:38:11;;;;;;;15.70;6.38;;;;;;;;;;6157294;23;20010;-66
2022/05/21 12:40:37;;;;;;;12.25;5.38;;;;;;;;;;6156520;23;20009;-66
2022/05/21 12:43:08;;;;;;;8.00;5.72;;;;;;;;;;6156791;23;20376;-66
2022/05/21 12:45:36;;;;;;;10.77;5.20;;;;;;;;;;6156931;23;20009;-66
2022/05/21 12:48:23;;;;;;;12.30;6.45;;;;;;;;;;6157280;23;19998;-66
2022/05/21 12:50:53;;;;;;;14.98;6.50;;;;;;;;;;6155981;23;20078;-66
2022/05/21 12:53:23;;;;;;;21.10;5.95;;;;;;;;;;6157170;23;20008;-66
2022/05/21 12:55:57;;;;;;;10.88;6.80;;;;;;;;;;6156934;23;20002;-66
2022/05/21 12:58:24;;;;;;;9.10;5.65;;;;;;;;;;6156647;23;20333;-66
2022/05/21 13:00:51;;;;;;;18.70;6.35;;;;;;;;;;6156819;23;20002;-66
2022/05/21 13:03:18;;;;;;;32.20;7.32;;;;;;;;;;6156729;23;19998;-66
2022/05/21 13:05:59;;;;;;;21.58;6.93;;;;;;;;;;6156652;23;20231;-66
2022/05/21 13:08:26;;;;;;;17.40;6.10;;;;;;;;;;6156727;23;20002;-66
2022/05/21 13:11:06;;;;;;;10.23;5.70;;;;;;;;;;6156661;23;20330;-66
2022/05/21 13:13:34;;;;;;;8.90;6.70;;;;;;;;;;6156518;23;19997;-66
2022/05/21 13:16:01;;;;;;;15.80;5.90;;;;;;;;;;6156574;23;20064;-66
2022/05/21 13:18:43;;;;;;;8.80;5.07;;;;;;;;;;6156585;23;20033;-66
2022/05/21 13:21:08;;;;;;;;;;;;;;;;;;6156365;23;20455;-66
2022/05/21 13:23:37;;;;;;;19.65;5.68;;;;;;;;;;6156713;23;19904;-66
2022/05/21 13:26:03;;;;;;;11.70;5.40;;;;;;;;;;6156588;23;20430;-66
2022/05/21 13:28:29;;;;;;;12.10;5.47;;;;;;;;;;6156483;23;20036;-66
2022/05/21 13:30:56;;;;;;;11.95;5.15;;;;;;;;;;6156223;23;20497;-66
2022/05/21 13:33:40;;;;;;;10.93;5.30;;;;;;;;;;6156646;23;19997;-66
2022/05/21 13:36:11;;;;;;;8.15;4.95;;;;;;;;;;6157008;23;20040;-66
2022/05/21 13:38:39;;;;;;;9.82;4.85;;;;;;;;;;6156922;23;20005;-66
2022/05/21 13:41:10;;;;;;;10.80;5.38;;;;;;;;;;6156447;23;20036;-66
2022/05/21 13:43:42;;;;;;;9.05;6.47;;;;;;;;;;6156022;23;20141;-65
2022/05/21 13:46:08;;;;;;;13.77;5.85;;;;;;;;;;6156210;23;20018;-66
2022/05/21 13:48:45;;;;;;;17.38;5.72;;;;;;;;;;6156481;23;20001;-66
2022/05/21 13:51:13;;;;;;;16.08;5.70;;;;;;;;;;6156627;23;20010;-66
2022/05/21 13:53:40;;;;;;;9.05;5.20;;;;;;;;;;6156635;23;20328;-64
2022/05/21 13:56:24;;;;;;;19.55;6.15;;;;;;;;;;6156150;23;20036;-66
2022/05/21 13:59:04;;;;;;;15.00;6.53;;;;;;;;;;6156323;23;20008;-65
2022/05/21 14:01:31;;;;;;;16.50;5.63;;;;;;;;;;6156681;23;20010;-65
2022/05/21 14:04:17;;;;;;;7.40;4.22;;;;;;;;;;6156577;23;19997;-65
2022/05/21 14:06:45;;;;;;;14.52;4.93;;;;;;;;;;6135921;23;20009;-66
2022/05/21 14:09:21;;;;;;;7.88;4.40;;;;;;;;;;6156153;23;20012;-65
2022/05/21 14:11:53;;;;;;;11.50;5.82;;;;;;;;;;6156344;23;20014;-65
2022/05/21 14:14:20;;;;;;;9.65;5.55;;;;;;;;;;6156630;23;20328;-65
2022/05/21 14:16:47;;;;;;;13.40;5.30;;;;;;;;;;6156335;23;20380;-65
2022/05/21 14:19:16;;;;;;;8.73;5.25;;;;;;;;;;6155981;23;20337;-66
2022/05/21 14:22:02;;;;;;;9.60;5.53;;;;;;;;;;6155964;23;20001;-66
2022/05/21 14:24:38;;;;;;;12.25;5.60;;;;;;;;;;6156164;23;20060;-65
2022/05/21 14:27:19;;;;;;;7.45;4.63;;;;;;;;;;6156046;23;20009;-65
2022/05/21 14:29:56;;;;;;;12.93;4.90;;;;;;;;;;6155968;23;20333;-66
2022/05/21 14:32:30;;;;;;;9.10;5.40;;;;;;;;;;6155924;23;20017;-65
2022/05/21 14:35:14;;;;;;;28.10;6.85;;;;;;;;;;6156300;23;20318;-65
2022/05/21 14:37:41;;;;;;;8.13;5.55;;;;;;;;;;6155888;23;20004;-65
2022/05/21 14:40:07;;;;;;;10.77;5.10;;;;;;;;;;6155709;23;20013;-65
2022/05/21 14:42:33;;;;;;;11.32;4.60;;;;;;;;;;6156510;23;20001;-65
2022/05/21 14:45:00;;;;;;;13.45;5.70;;;;;;;;;;6155725;23;20040;-66
2022/05/21 14:52:58;;;;;;;10.93;5.43;;;;;;;;;;6155726;23;20024;-65
2022/05/21 14:55:25;;;;;;;13.45;6.00;;;;;;;;;;6156091;23;20005;-66
2022/05/21 14:57:51;;;;;;;22.38;7.55;;;;;;;;;;6156103;23;20041;-65
2022/05/21 15:00:19;;;;;;;13.82;6.35;;;;;;;;;;6155809;23;19998;-65
2022/05/21 15:02:45;;;;;;;13.93;6.68;;;;;;;;;;6155551;23;20013;-65
2022/05/21 15:05:11;;;;;;;19.50;7.47;;;;;;;;;;6155678;23;20006;-65
2022/05/21 15:07:39;;;;;;;15.02;6.15;;;;;;;;;;6155530;23;20001;-65
2022/05/21 15:10:06;;;;;;;16.63;5.57;;;;;;;;;;6155932;23;20080;-65
2022/05/21 15:12:33;;;;;;;11.48;7.13;;;;;;;;;;6156102;23;20072;-65